| time (UTC) | temp F | wind direction | speed MPH | gust MPH | rain 1hr in | rain 24hr in | rain mn in | humidity % | barometer mb |
| 20260509002204 | 61 | 344 | 2.0 | 6.0 | 0.00 | 0.00 | 0.00 | 75 | 1009.9 |
| 20260509001216 | 62 | 347 | 2.0 | 8.0 | 0.00 | 0.00 | 0.00 | 70 | 1009.6 |
| 20260509000151 | 62 | 11 | 3.0 | 8.0 | 0.00 | 0.00 | 0.00 | 70 | 1009.7 |
| 20260508235202 | 63 | 333 | 3.0 | 8.0 | 0.00 | 0.00 | 0.00 | 66 | 1009.7 |
| 20260508234142 | 67 | 342 | 1.0 | 5.0 | 0.00 | 0.00 | 0.00 | 58 | 1009.6 |
| 20260508231953 | 69 | 231 | 3.0 | 8.0 | 0.00 | 0.00 | 0.00 | 47 | 1009.4 |
| 20260508230921 | 69 | 234 | 3.0 | 8.0 | 0.00 | 0.00 | 0.00 | 47 | 1009.4 |
| 20260508224810 | 69 | 238 | 4.0 | 9.0 | 0.00 | 0.00 | 0.00 | 46 | 1009.3 |
| 20260508223746 | 69 | 262 | 5.0 | 14.0 | 0.00 | 0.00 | 0.00 | 46 | 1009.5 |
| 20260508222804 | 69 | 249 | 5.0 | 14.0 | 0.00 | 0.00 | 0.00 | 45 | 1009.4 |
| 20260508221747 | 69 | 244 | 3.0 | 8.0 | 0.00 | 0.00 | 0.00 | 46 | 1009.5 |
| 20260508220717 | 69 | 202 | 3.0 | 8.0 | 0.00 | 0.00 | 0.00 | 46 | 1009.4 |
| 20260508215707 | 69 | 229 | 4.0 | 9.0 | 0.00 | 0.00 | 0.00 | 46 | 1009.3 |
| 20260508214711 | 69 | 238 | 4.0 | 12.0 | 0.00 | 0.00 | 0.00 | 46 | 1009.3 |
| 20260508213653 | 69 | 229 | 5.0 | 12.0 | 0.00 | 0.00 | 0.00 | 47 | 1009.3 |
| 20260508212631 | 69 | 210 | 4.0 | 9.0 | 0.00 | 0.00 | 0.00 | 46 | 1009.1 |
| 20260508211610 | 69 | 226 | 3.0 | 9.0 | 0.00 | 0.00 | 0.00 | 45 | 1009.1 |
| 20260508205445 | 69 | 235 | 6.0 | 13.0 | 0.00 | 0.00 | 0.00 | 44 | 1009.4 |
| 20260508204444 | 69 | 255 | 4.0 | 12.0 | 0.00 | 0.00 | 0.00 | 45 | 1009.5 |
| 20260508203427 | 69 | 278 | 4.0 | 9.0 | 0.00 | 0.00 | 0.00 | 44 | 1009.7 |
| 20260508202441 | 69 | 232 | 5.0 | 11.0 | 0.00 | 0.00 | 0.00 | 44 | 1009.8 |
| 20260508201407 | 69 | 171 | 3.0 | 11.0 | 0.00 | 0.00 | 0.00 | 43 | 1009.9 |
| 20260508200356 | 69 | 265 | 4.0 | 13.0 | 0.00 | 0.00 | 0.00 | 44 | 1010.1 |
| 20260508195329 | 69 | 233 | 6.0 | 14.0 | 0.00 | 0.00 | 0.00 | 43 | 1010.3 |
| 20260508194321 | 69 | 236 | 8.0 | 14.0 | 0.00 | 0.00 | 0.00 | 43 | 1010.5 |
| 20260508193305 | 69 | 235 | 7.0 | 15.0 | 0.00 | 0.00 | 0.00 | 42 | 1010.6 |
| 20260508192232 | 70 | 232 | 8.0 | 21.0 | 0.00 | 0.00 | 0.00 | 42 | 1011.0 |
| 20260508190051 | 70 | 249 | 8.0 | 20.0 | 0.00 | 0.00 | 0.00 | 40 | 1011.2 |
| 20260508185021 | 70 | 226 | 9.0 | 20.0 | 0.00 | 0.00 | 0.00 | 40 | 1011.3 |
| 20260508184045 | 70 | 228 | 7.0 | 18.0 | 0.00 | 0.00 | 0.00 | 39 | 1011.3 |
| 20260508183027 | 70 | 247 | 9.0 | 19.0 | 0.00 | 0.00 | 0.00 | 40 | 1011.4 |
| 20260508182044 | 70 | 214 | 11.0 | 23.0 | 0.00 | 0.00 | 0.00 | 38 | 1011.3 |
| 20260508181051 | 70 | 240 | 14.0 | 24.0 | 0.00 | 0.00 | 0.00 | 39 | 1011.2 |
| 20260508180105 | 69 | 219 | 11.0 | 24.0 | 0.00 | 0.00 | 0.00 | 39 | 1011.4 |
| 20260508175125 | 69 | 238 | 8.0 | 17.0 | 0.00 | 0.00 | 0.00 | 41 | 1011.5 |
| 20260508174101 | 69 | 237 | 9.0 | 18.0 | 0.00 | 0.00 | 0.00 | 44 | 1011.8 |
| 20260508173121 | 70 | 238 | 8.0 | 21.0 | 0.00 | 0.00 | 0.00 | 41 | 1011.9 |
| 20260508172144 | 69 | 235 | 9.0 | 21.0 | 0.00 | 0.00 | 0.00 | 42 | 1012.2 |
| 20260508171126 | 67 | 217 | 8.0 | 16.0 | 0.00 | 0.00 | 0.00 | 45 | 1012.3 |
| 20260508170137 | 67 | 253 | 6.0 | 16.0 | 0.00 | 0.00 | 0.00 | 45 | 1012.8 |
| 20260508165148 | 68 | 240 | 6.0 | 14.0 | 0.00 | 0.00 | 0.00 | 45 | 1012.9 |
| 20260508164125 | 66 | 215 | 8.0 | 18.0 | 0.00 | 0.00 | 0.00 | 46 | 1013.1 |
| 20260508161921 | 66 | 199 | 10.0 | 21.0 | 0.00 | 0.00 | 0.00 | 46 | 1013.6 |
| 20260508160852 | 66 | 247 | 6.0 | 14.0 | 0.00 | 0.00 | 0.00 | 45 | 1013.7 |
| 20260508155856 | 66 | 234 | 6.0 | 15.0 | 0.00 | 0.00 | 0.00 | 48 | 1013.9 |
| 20260508154921 | 65 | 108 | 6.0 | 15.0 | 0.00 | 0.00 | 0.00 | 48 | 1014.0 |
| 20260508153909 | 64 | 245 | 6.0 | 13.0 | 0.00 | 0.00 | 0.00 | 51 | 1014.2 |
| 20260508152841 | 64 | 234 | 4.0 | 15.0 | 0.00 | 0.00 | 0.00 | 50 | 1014.2 |
| 20260508151854 | 63 | 279 | 7.0 | 15.0 | 0.00 | 0.00 | 0.00 | 50 | 1014.1 |
| 20260508144540 | 63 | 312 | 9.0 | 19.0 | 0.00 | 0.00 | 0.00 | 48 | 1014.3 |
| 20260508143541 | 64 | 203 | 8.0 | 17.0 | 0.00 | 0.00 | 0.00 | 47 | 1014.2 |
| 20260508141447 | 63 | 229 | 7.0 | 13.0 | 0.00 | 0.00 | 0.00 | 47 | 1014.5 |
| 20260508140449 | 62 | 229 | 5.0 | 11.0 | 0.00 | 0.00 | 0.00 | 48 | 1014.8 |
| 20260508135428 | 61 | 208 | 5.0 | 11.0 | 0.00 | 0.00 | 0.00 | 49 | 1014.6 |
| 20260508134426 | 61 | 242 | 4.0 | 11.0 | 0.00 | 0.00 | 0.00 | 50 | 1014.7 |
| 20260508132314 | 58 | 142 | 2.0 | 6.0 | 0.00 | 0.00 | 0.00 | 55 | 1014.9 |
| 20260508131315 | 57 | 247 | 3.0 | 8.0 | 0.00 | 0.00 | 0.00 | 56 | 1014.9 |
| 20260508130325 | 56 | 229 | 3.0 | 8.0 | 0.00 | 0.00 | 0.00 | 58 | 1015.0 |
| 20260508124123 | 55 | 134 | 2.0 | 5.0 | 0.00 | 0.00 | 0.00 | 59 | 1015.1 |
| 20260508123141 | 55 | 160 | 1.0 | 5.0 | 0.00 | 0.00 | 0.00 | 60 | 1014.9 |
| 20260508122108 | 54 | 145 | 0.0 | 3.0 | 0.00 | 0.00 | 0.00 | 61 | 1015.0 |
| 20260508121055 | 53 | 224 | 1.0 | 4.0 | 0.00 | 0.00 | 0.00 | 63 | 1015.0 |
| 20260508120025 | 52 | 198 | 1.0 | 4.0 | 0.00 | 0.00 | 0.00 | 64 | 1014.9 |
| 20260508114950 | 51 | 232 | 2.0 | 4.0 | 0.00 | 0.00 | 0.00 | 66 | 1014.8 |
| 20260508114009 | 50 | 134 | 2.0 | 5.0 | 0.00 | 0.00 | 0.00 | 66 | 1014.8 |
| 20260508111840 | 49 | 142 | 1.0 | 4.0 | 0.00 | 0.00 | 0.00 | 68 | 1014.6 |
| 20260508110840 | 49 | 148 | 0.0 | 3.0 | 0.00 | 0.00 | 0.00 | 70 | 1014.5 |
| 20260508105904 | 48 | 169 | 1.0 | 4.0 | 0.00 | 0.00 | 0.00 | 71 | 1014.4 |
| 20260508104833 | 47 | 168 | 1.0 | 4.0 | 0.00 | 0.00 | 0.00 | 72 | 1014.4 |
| 20260508103825 | 47 | 145 | 1.0 | 3.0 | 0.00 | 0.00 | 0.00 | 73 | 1014.3 |
| 20260508102810 | 47 | 121 | 1.0 | 3.0 | 0.00 | 0.00 | 0.00 | 73 | 1014.4 |
| 20260508101740 | 48 | 113 | 1.0 | 3.0 | 0.00 | 0.00 | 0.00 | 72 | 1014.3 |
| 20260508100723 | 48 | 106 | 1.0 | 4.0 | 0.00 | 0.00 | 0.00 | 70 | 1014.2 |
| 20260508095746 | 48 | 129 | 1.0 | 4.0 | 0.00 | 0.00 | 0.00 | 69 | 1014.2 |
| 20260508094758 | 49 | 139 | 1.0 | 4.0 | 0.00 | 0.00 | 0.00 | 68 | 1014.1 |
| 20260508093741 | 49 | 135 | 1.0 | 4.0 | 0.00 | 0.00 | 0.00 | 68 | 1014.2 |
| 20260508092756 | 49 | 162 | 0.0 | 3.0 | 0.00 | 0.00 | 0.00 | 68 | 1014.2 |
| 20260508084444 | 50 | 150 | 1.0 | 3.0 | 0.00 | 0.00 | 0.00 | 65 | 1014.2 |
| 20260508083416 | 50 | 129 | 1.0 | 3.0 | 0.00 | 0.00 | 0.00 | 65 | 1014.2 |
| 20260508082420 | 50 | 262 | 0.0 | 3.0 | 0.00 | 0.00 | 0.00 | 65 | 1014.2 |
| 20260508081430 | 50 | 155 | 0.0 | 2.0 | 0.00 | 0.00 | 0.00 | 65 | 1014.2 |
| 20260508080410 | 50 | 173 | 0.0 | 3.0 | 0.00 | 0.00 | 0.00 | 65 | 1014.2 |
| 20260508075403 | 50 | 113 | 0.0 | 2.0 | 0.00 | 0.00 | 0.00 | 64 | 1014.1 |
| 20260508074330 | 50 | 214 | 1.0 | 2.0 | 0.00 | 0.00 | 0.00 | 64 | 1014.3 |
| 20260508073330 | 50 | 155 | 1.0 | 3.0 | 0.00 | 0.00 | 0.00 | 64 | 1014.4 |
| 20260508072259 | 49 | 230 | 1.0 | 3.0 | 0.00 | 0.00 | 0.00 | 63 | 1014.5 |
| 20260508071312 | 49 | 226 | 0.0 | 2.0 | 0.00 | 0.00 | 0.00 | 64 | 1014.5 |
| 20260508070252 | 49 | 188 | 0.0 | 3.0 | 0.00 | 0.00 | 0.00 | 65 | 1014.5 |
| 20260508065243 | 49 | 256 | 0.0 | 3.0 | 0.00 | 0.00 | 0.00 | 65 | 1014.5 |
| 20260508063130 | 49 | 160 | 1.0 | 4.0 | 0.00 | 0.00 | 0.00 | 64 | 1014.6 |
| 20260508062127 | 50 | 229 | 1.0 | 4.0 | 0.00 | 0.00 | 0.00 | 63 | 1014.7 |
| 20260508061150 | 50 | 196 | 2.0 | 4.0 | 0.00 | 0.00 | 0.00 | 63 | 1014.8 |
| 20260508054953 | 50 | 175 | 1.0 | 4.0 | 0.00 | 0.00 | 0.00 | 61 | 1015.2 |
| 20260508054016 | 51 | 129 | 1.0 | 4.0 | 0.00 | 0.00 | 0.00 | 61 | 1015.2 |
| 20260508053014 | 51 | 174 | 1.0 | 3.0 | 0.00 | 0.00 | 0.00 | 60 | 1015.2 |
| 20260508052007 | 51 | 224 | 0.0 | 3.0 | 0.00 | 0.00 | 0.00 | 60 | 1015.3 |
| 20260508050941 | 51 | 272 | 0.0 | 1.0 | 0.00 | 0.00 | 0.00 | 59 | 1015.2 |
| 20260508044815 | 52 | 214 | 1.0 | 6.0 | 0.00 | 0.00 | 0.00 | 58 | 1015.1 |
| 20260508042645 | 53 | 276 | 1.0 | 4.0 | 0.00 | 0.00 | 0.00 | 56 | 1015.3 |
| 20260508041611 | 53 | 142 | 1.0 | 4.0 | 0.00 | 0.00 | 0.00 | 56 | 1015.3 |
| 20260508040541 | 53 | 212 | 1.0 | 4.0 | 0.00 | 0.00 | 0.00 | 56 | 1015.3 |
| 20260508035519 | 53 | 263 | 0.0 | 3.0 | 0.00 | 0.00 | 0.00 | 56 | 1015.2 |
| 20260508034452 | 53 | 224 | 1.0 | 4.0 | 0.00 | 0.00 | 0.00 | 56 | 1015.3 |
| 20260508033433 | 53 | 235 | 0.0 | 3.0 | 0.00 | 0.00 | 0.00 | 55 | 1015.3 |
| 20260508032436 | 53 | 177 | 1.0 | 3.0 | 0.00 | 0.00 | 0.00 | 54 | 1015.2 |
| 20260508031433 | 53 | 239 | 2.0 | 4.0 | 0.00 | 0.00 | 0.00 | 54 | 1015.3 |
| 20260508030456 | 54 | 234 | 1.0 | 5.0 | 0.00 | 0.00 | 0.00 | 53 | 1015.4 |
| 20260508025429 | 54 | 235 | 1.0 | 6.0 | 0.00 | 0.00 | 0.00 | 53 | 1015.0 |
| 20260508024431 | 54 | 228 | 3.0 | 6.0 | 0.00 | 0.00 | 0.00 | 52 | 1015.1 |
| 20260508023412 | 54 | 215 | 3.0 | 5.0 | 0.00 | 0.00 | 0.00 | 51 | 1015.0 |
| 20260508022431 | 55 | 225 | 3.0 | 4.0 | 0.00 | 0.00 | 0.00 | 50 | 1014.8 |
| 20260508021445 | 55 | 235 | 2.0 | 4.0 | 0.00 | 0.00 | 0.00 | 49 | 1014.7 |
| 20260508015258 | 56 | 238 | 3.0 | 4.0 | 0.00 | 0.00 | 0.00 | 46 | 1014.5 |
| 20260508014310 | 56 | 225 | 3.0 | 4.0 | 0.00 | 0.00 | 0.00 | 46 | 1014.7 |
| 20260508013313 | 57 | 232 | 2.0 | 4.0 | 0.00 | 0.00 | 0.00 | 45 | 1014.6 |
| 20260508010023 | 58 | 229 | 1.0 | 3.0 | 0.00 | 0.00 | 0.00 | 43 | 1014.4 |
| 20260508004951 | 58 | 243 | 0.0 | 3.0 | 0.00 | 0.00 | 0.00 | 43 | 1014.5 |
| 20260508004004 | 59 | 240 | 1.0 | 3.0 | 0.00 | 0.00 | 0.00 | 41 | 1014.5 |
| 20260508002941 | 59 | 239 | 0.0 | 3.0 | 0.00 | 0.00 | 0.00 | 39 | 1014.4 |